Cummaquid, MA (02637)

7:55 PM EDT on July 23, 2016 (GMT -0400)
Willow Street | | Change Station

Elev 66 ft 41.69 °N, 70.26 °W | Updated 5 minutes ago

Clear
Clear
82.6 °F
Feels Like 85 °F
N
7.0
Wind Variable Wind from WSW
Gusts 13.0 mph

Today
High -- | Low -- °F
--% Chance of Precip.
Yesterday
High -- | Low -- °F
Precip. -- in
Pressure 29.72 in
Visibility 10.0 miles
Clouds Clear
Heat Index 85 °F
Dew Point 67 °F
Humidity 60%
Rainfall 0.00 in
Snow Depth Not available.
5:27 AM 8:07 PM
Waning Gibbous, 81% visible
METAR KHYA 232256Z AUTO 23011KT 10SM CLR 29/20 A2971 RMK AO2 SLP062 T02940200
Pressure 29.72 in
Visibility 10.0 miles
Clouds Clear
Heat Index 85 °F
Dew Point 67 °F
Humidity 60%
Rainfall 0.00 in
Snow Depth Not available.
5:27 AM 8:07 PM
Waning Gibbous, 81% visible
METAR KHYA 232256Z AUTO 23011KT 10SM CLR 29/20 A2971 RMK AO2 SLP062 T02940200

10-Day Weather Forecast

Almanac

Astronomy

Jul. 23, 2016 Rise Set
Actual Time
Civil Twilight
Nautical Twilight
Astronomical Twilight
Moon
Length of Visible Light
Length of Day
Tomorrow will be .
, % of the Moon is Illuminated

Today's Extremes

State Highs State Lows

Community

WunderPhotos

Upload Photos

1,926,975 photos uploaded!

WunderBlog® & News

Nearby

Air Quality

  Air Quality AQ Index Pollutant
Not available.

Snow Depth

Station Depth Elevation

Earthquake Activity

City Distance Mag. Time & Date
Minimum magnitude displayed is 2.5.

Coastal Water Temperatures

Place Temperature

Stations

Nearby Weather Stations

Station Location Temp. Windchill Dew Point Humidity Wind Precip. Elev Updated Type
                   

Watches & Warnings

There are currently no watches in effect.